sensor_id;sensor_type;location;lat;lon;timestamp;temperature;humidity
65074;DHT22;52218;51.224;-2.328;2022-08-30T00:02:15;15.70;94.60
65074;DHT22;52218;51.224;-2.328;2022-08-30T00:05:57;15.60;94.80
65074;DHT22;52218;51.224;-2.328;2022-08-30T00:09:39;15.60;94.90
65074;DHT22;52218;51.224;-2.328;2022-08-30T00:13:22;15.50;95.10
65074;DHT22;52218;51.224;-2.328;2022-08-30T00:17:04;15.40;95.20
65074;DHT22;52218;51.224;-2.328;2022-08-30T00:20:47;15.40;95.70
65074;DHT22;52218;51.224;-2.328;2022-08-30T00:24:30;15.30;95.50
65074;DHT22;52218;51.224;-2.328;2022-08-30T00:28:13;15.20;95.70
65074;DHT22;52218;51.224;-2.328;2022-08-30T00:31:55;15.20;96.00
65074;DHT22;52218;51.224;-2.328;2022-08-30T00:35:37;15.10;96.10
65074;DHT22;52218;51.224;-2.328;2022-08-30T00:39:20;15.00;96.20
65074;DHT22;52218;51.224;-2.328;2022-08-30T00:43:05;15.00;96.50
65074;DHT22;52218;51.224;-2.328;2022-08-30T00:46:47;14.90;96.60
65074;DHT22;52218;51.224;-2.328;2022-08-30T00:50:36;14.90;96.80
65074;DHT22;52218;51.224;-2.328;2022-08-30T00:54:19;14.80;96.90
65074;DHT22;52218;51.224;-2.328;2022-08-30T00:58:04;14.80;96.90
65074;DHT22;52218;51.224;-2.328;2022-08-30T01:01:47;14.70;97.10
65074;DHT22;52218;51.224;-2.328;2022-08-30T01:05:30;14.70;97.20
65074;DHT22;52218;51.224;-2.328;2022-08-30T01:09:13;14.60;97.30
65074;DHT22;52218;51.224;-2.328;2022-08-30T01:12:55;14.60;97.50
65074;DHT22;52218;51.224;-2.328;2022-08-30T01:16:38;14.60;97.70
65074;DHT22;52218;51.224;-2.328;2022-08-30T01:20:28;14.50;97.70
65074;DHT22;52218;51.224;-2.328;2022-08-30T01:24:13;14.50;97.80
65074;DHT22;52218;51.224;-2.328;2022-08-30T01:28:02;14.40;97.80
65074;DHT22;52218;51.224;-2.328;2022-08-30T01:31:44;14.40;97.90
65074;DHT22;52218;51.224;-2.328;2022-08-30T01:35:28;14.40;98.00
65074;DHT22;52218;51.224;-2.328;2022-08-30T01:39:14;14.40;98.10
65074;DHT22;52218;51.224;-2.328;2022-08-30T01:42:57;14.30;98.20
65074;DHT22;52218;51.224;-2.328;2022-08-30T01:46:44;14.30;95.70
65074;DHT22;52218;51.224;-2.328;2022-08-30T01:50:27;14.20;98.10
65074;DHT22;52218;51.224;-2.328;2022-08-30T01:54:09;14.10;98.30
65074;DHT22;52218;51.224;-2.328;2022-08-30T01:57:51;14.10;98.80
65074;DHT22;52218;51.224;-2.328;2022-08-30T02:01:35;14.10;98.60
65074;DHT22;52218;51.224;-2.328;2022-08-30T02:05:17;14.00;98.80
65074;DHT22;52218;51.224;-2.328;2022-08-30T02:09:00;14.00;98.90
65074;DHT22;52218;51.224;-2.328;2022-08-30T02:12:42;14.00;99.00
65074;DHT22;52218;51.224;-2.328;2022-08-30T02:16:24;13.90;99.00
65074;DHT22;52218;51.224;-2.328;2022-08-30T02:20:07;13.90;99.20
65074;DHT22;52218;51.224;-2.328;2022-08-30T02:23:50;13.90;99.20
65074;DHT22;52218;51.224;-2.328;2022-08-30T02:27:32;13.90;99.10
65074;DHT22;52218;51.224;-2.328;2022-08-30T02:31:14;13.90;99.20
65074;DHT22;52218;51.224;-2.328;2022-08-30T02:34:59;13.80;99.20
65074;DHT22;52218;51.224;-2.328;2022-08-30T02:38:41;13.80;99.30
65074;DHT22;52218;51.224;-2.328;2022-08-30T02:42:23;13.80;99.40
65074;DHT22;52218;51.224;-2.328;2022-08-30T02:46:05;13.70;99.50
65074;DHT22;52218;51.224;-2.328;2022-08-30T02:49:47;13.60;99.60
65074;DHT22;52218;51.224;-2.328;2022-08-30T02:53:29;13.60;99.70
65074;DHT22;52218;51.224;-2.328;2022-08-30T02:57:12;13.60;99.70
65074;DHT22;52218;51.224;-2.328;2022-08-30T03:01:01;13.60;99.80
65074;DHT22;52218;51.224;-2.328;2022-08-30T03:04:43;13.50;99.70
65074;DHT22;52218;51.224;-2.328;2022-08-30T03:08:25;13.50;99.90
65074;DHT22;52218;51.224;-2.328;2022-08-30T03:12:08;13.40;99.90
65074;DHT22;52218;51.224;-2.328;2022-08-30T03:15:50;13.40;99.90
65074;DHT22;52218;51.224;-2.328;2022-08-30T03:19:33;13.30;99.90
65074;DHT22;52218;51.224;-2.328;2022-08-30T03:23:17;13.30;99.90
65074;DHT22;52218;51.224;-2.328;2022-08-30T03:27:02;13.20;99.90
65074;DHT22;52218;51.224;-2.328;2022-08-30T03:30:44;13.20;99.90
65074;DHT22;52218;51.224;-2.328;2022-08-30T03:34:27;13.20;99.90
65074;DHT22;52218;51.224;-2.328;2022-08-30T03:38:09;13.20;99.90
65074;DHT22;52218;51.224;-2.328;2022-08-30T03:41:52;13.10;99.90
65074;DHT22;52218;51.224;-2.328;2022-08-30T03:45:34;13.10;99.90
65074;DHT22;52218;51.224;-2.328;2022-08-30T03:49:17;13.00;99.90
65074;DHT22;52218;51.224;-2.328;2022-08-30T03:53:00;13.00;99.90
65074;DHT22;52218;51.224;-2.328;2022-08-30T03:56:42;13.00;99.90
65074;DHT22;52218;51.224;-2.328;2022-08-30T04:00:25;13.00;99.90
65074;DHT22;52218;51.224;-2.328;2022-08-30T04:04:07;12.90;99.90
65074;DHT22;52218;51.224;-2.328;2022-08-30T04:07:49;12.90;99.90
65074;DHT22;52218;51.224;-2.328;2022-08-30T04:11:31;12.80;99.90
65074;DHT22;52218;51.224;-2.328;2022-08-30T04:15:15;12.80;99.90
65074;DHT22;52218;51.224;-2.328;2022-08-30T04:18:57;12.70;99.90
65074;DHT22;52218;51.224;-2.328;2022-08-30T04:22:39;12.70;99.90
65074;DHT22;52218;51.224;-2.328;2022-08-30T04:26:21;12.70;99.90
65074;DHT22;52218;51.224;-2.328;2022-08-30T04:30:08;12.60;99.90
65074;DHT22;52218;51.224;-2.328;2022-08-30T04:33:50;12.60;99.90
65074;DHT22;52218;51.224;-2.328;2022-08-30T04:37:32;12.50;99.90
65074;DHT22;52218;51.224;-2.328;2022-08-30T04:41:18;12.50;99.90
65074;DHT22;52218;51.224;-2.328;2022-08-30T04:45:07;12.40;99.90
65074;DHT22;52218;51.224;-2.328;2022-08-30T04:48:49;12.40;99.90
65074;DHT22;52218;51.224;-2.328;2022-08-30T04:52:31;12.40;99.90
65074;DHT22;52218;51.224;-2.328;2022-08-30T04:56:16;12.30;99.90
65074;DHT22;52218;51.224;-2.328;2022-08-30T04:59:58;12.30;99.90
65074;DHT22;52218;51.224;-2.328;2022-08-30T05:03:40;12.30;99.90
65074;DHT22;52218;51.224;-2.328;2022-08-30T05:07:22;12.20;99.90
65074;DHT22;52218;51.224;-2.328;2022-08-30T05:11:06;12.20;99.90
65074;DHT22;52218;51.224;-2.328;2022-08-30T05:14:48;12.10;99.90
65074;DHT22;52218;51.224;-2.328;2022-08-30T05:18:31;12.10;99.90
65074;DHT22;52218;51.224;-2.328;2022-08-30T05:22:13;12.10;99.90
65074;DHT22;52218;51.224;-2.328;2022-08-30T05:25:55;12.00;99.90
65074;DHT22;52218;51.224;-2.328;2022-08-30T05:29:37;12.00;99.90
65074;DHT22;52218;51.224;-2.328;2022-08-30T05:33:19;12.00;99.90
65074;DHT22;52218;51.224;-2.328;2022-08-30T05:37:02;12.00;99.90
65074;DHT22;52218;51.224;-2.328;2022-08-30T05:40:44;11.90;99.90
65074;DHT22;52218;51.224;-2.328;2022-08-30T05:44:26;11.90;99.90
65074;DHT22;52218;51.224;-2.328;2022-08-30T05:48:08;11.90;99.90
65074;DHT22;52218;51.224;-2.328;2022-08-30T05:51:53;12.00;99.90
65074;DHT22;52218;51.224;-2.328;2022-08-30T05:55:35;12.00;99.90
65074;DHT22;52218;51.224;-2.328;2022-08-30T05:59:18;12.00;99.90
65074;DHT22;52218;51.224;-2.328;2022-08-30T06:02:59;12.10;99.90
65074;DHT22;52218;51.224;-2.328;2022-08-30T06:06:43;12.20;99.90
65074;DHT22;52218;51.224;-2.328;2022-08-30T06:10:25;12.30;99.90
65074;DHT22;52218;51.224;-2.328;2022-08-30T06:14:07;12.40;99.90
65074;DHT22;52218;51.224;-2.328;2022-08-30T06:17:49;12.60;99.90
65074;DHT22;52218;51.224;-2.328;2022-08-30T06:21:34;12.70;99.90
65074;DHT22;52218;51.224;-2.328;2022-08-30T06:25:16;12.90;99.90
65074;DHT22;52218;51.224;-2.328;2022-08-30T06:28:58;13.20;99.90
65074;DHT22;52218;51.224;-2.328;2022-08-30T06:32:40;13.50;99.90
65074;DHT22;52218;51.224;-2.328;2022-08-30T06:36:23;13.70;99.90
65074;DHT22;52218;51.224;-2.328;2022-08-30T06:40:06;14.00;99.90
65074;DHT22;52218;51.224;-2.328;2022-08-30T06:43:48;14.30;99.90
65074;DHT22;52218;51.224;-2.328;2022-08-30T06:47:30;14.60;99.90
65074;DHT22;52218;51.224;-2.328;2022-08-30T06:51:12;14.90;99.60
65074;DHT22;52218;51.224;-2.328;2022-08-30T06:54:56;15.20;99.30
65074;DHT22;52218;51.224;-2.328;2022-08-30T06:58:39;15.50;98.80
65074;DHT22;52218;51.224;-2.328;2022-08-30T07:02:22;15.80;98.50
65074;DHT22;52218;51.224;-2.328;2022-08-30T07:06:04;16.10;98.10
65074;DHT22;52218;51.224;-2.328;2022-08-30T07:09:46;16.30;97.60
65074;DHT22;52218;51.224;-2.328;2022-08-30T07:13:28;16.50;97.10
65074;DHT22;52218;51.224;-2.328;2022-08-30T07:17:11;16.90;96.90
65074;DHT22;52218;51.224;-2.328;2022-08-30T07:21:17;17.30;96.00
65074;DHT22;52218;51.224;-2.328;2022-08-30T07:25:00;17.90;95.50
65074;DHT22;52218;51.224;-2.328;2022-08-30T07:28:43;18.60;94.50
65074;DHT22;52218;51.224;-2.328;2022-08-30T07:32:25;19.20;93.70
65074;DHT22;52218;51.224;-2.328;2022-08-30T07:36:08;19.60;93.10
65074;DHT22;52218;51.224;-2.328;2022-08-30T07:39:51;19.80;92.80
65074;DHT22;52218;51.224;-2.328;2022-08-30T07:43:34;20.00;92.30
65074;DHT22;52218;51.224;-2.328;2022-08-30T07:47:16;20.00;91.70
65074;DHT22;52218;51.224;-2.328;2022-08-30T07:50:58;19.90;92.30
65074;DHT22;52218;51.224;-2.328;2022-08-30T07:54:45;20.10;91.80
65074;DHT22;52218;51.224;-2.328;2022-08-30T07:58:33;20.60;91.40
65074;DHT22;52218;51.224;-2.328;2022-08-30T08:02:18;20.90;90.80
65074;DHT22;52218;51.224;-2.328;2022-08-30T08:06:02;21.00;90.50
65074;DHT22;52218;51.224;-2.328;2022-08-30T08:09:44;20.90;90.50
65074;DHT22;52218;51.224;-2.328;2022-08-30T08:13:26;20.80;90.50
65074;DHT22;52218;51.224;-2.328;2022-08-30T08:17:13;20.50;90.90
65074;DHT22;52218;51.224;-2.328;2022-08-30T08:20:55;20.20;91.30
65074;DHT22;52218;51.224;-2.328;2022-08-30T08:24:37;20.00;91.60
65074;DHT22;52218;51.224;-2.328;2022-08-30T08:28:19;19.90;91.80
65074;DHT22;52218;51.224;-2.328;2022-08-30T08:32:01;20.10;91.80
65074;DHT22;52218;51.224;-2.328;2022-08-30T08:35:44;20.20;91.70
65074;DHT22;52218;51.224;-2.328;2022-08-30T08:39:26;20.50;91.50
65074;DHT22;52218;51.224;-2.328;2022-08-30T08:43:11;20.80;91.10
65074;DHT22;52218;51.224;-2.328;2022-08-30T08:47:30;21.00;90.60
65074;DHT22;52218;51.224;-2.328;2022-08-30T08:51:16;21.00;90.90
65074;DHT22;52218;51.224;-2.328;2022-08-30T08:55:18;21.00;90.70
65074;DHT22;52218;51.224;-2.328;2022-08-30T08:59:02;20.90;90.60
65074;DHT22;52218;51.224;-2.328;2022-08-30T09:02:51;20.80;90.70
65074;DHT22;52218;51.224;-2.328;2022-08-30T09:06:42;20.70;91.00
65074;DHT22;52218;51.224;-2.328;2022-08-30T09:10:26;20.80;91.10
65074;DHT22;52218;51.224;-2.328;2022-08-30T09:14:36;21.30;90.60
65074;DHT22;52218;51.224;-2.328;2022-08-30T09:18:43;22.10;90.20
65074;DHT22;52218;51.224;-2.328;2022-08-30T09:26:32;23.10;87.60
65074;DHT22;52218;51.224;-2.328;2022-08-30T09:34:03;23.00;86.50
65074;DHT22;52218;51.224;-2.328;2022-08-30T09:41:43;22.60;88.10
65074;DHT22;52218;51.224;-2.328;2022-08-30T09:45:31;22.90;87.00
65074;DHT22;52218;51.224;-2.328;2022-08-30T09:49:41;23.50;85.70
65074;DHT22;52218;51.224;-2.328;2022-08-30T09:53:29;24.40;84.70
65074;DHT22;52218;51.224;-2.328;2022-08-30T10:01:24;26.30;78.50
65074;DHT22;52218;51.224;-2.328;2022-08-30T10:13:34;27.60;70.50
65074;DHT22;52218;51.224;-2.328;2022-08-30T10:22:01;27.20;71.90
65074;DHT22;52218;51.224;-2.328;2022-08-30T10:25:49;26.70;73.00
65074;DHT22;52218;51.224;-2.328;2022-08-30T10:30:09;26.70;71.90
65074;DHT22;52218;51.224;-2.328;2022-08-30T10:33:56;27.20;72.50
65074;DHT22;52218;51.224;-2.328;2022-08-30T10:37:57;27.90;67.80
65074;DHT22;52218;51.224;-2.328;2022-08-30T10:41:48;28.00;67.40
65074;DHT22;52218;51.224;-2.328;2022-08-30T10:45:34;28.00;67.20
65074;DHT22;52218;51.224;-2.328;2022-08-30T10:49:21;28.00;66.00
65074;DHT22;52218;51.224;-2.328;2022-08-30T10:53:31;28.20;65.60
65074;DHT22;52218;51.224;-2.328;2022-08-30T10:57:16;28.30;67.70
65074;DHT22;52218;51.224;-2.328;2022-08-30T11:01:25;28.60;63.80
65074;DHT22;52218;51.224;-2.328;2022-08-30T11:09:23;28.50;62.50
65074;DHT22;52218;51.224;-2.328;2022-08-30T11:13:14;27.80;64.60
65074;DHT22;52218;51.224;-2.328;2022-08-30T11:16:59;27.20;64.60
65074;DHT22;52218;51.224;-2.328;2022-08-30T11:20:45;27.10;65.50
65074;DHT22;52218;51.224;-2.328;2022-08-30T11:24:27;27.60;64.60
65074;DHT22;52218;51.224;-2.328;2022-08-30T11:28:09;28.00;63.40
65074;DHT22;52218;51.224;-2.328;2022-08-30T11:31:54;28.00;62.80
65074;DHT22;52218;51.224;-2.328;2022-08-30T11:39:51;27.10;63.80
65074;DHT22;52218;51.224;-2.328;2022-08-30T11:47:48;26.20;65.60
65074;DHT22;52218;51.224;-2.328;2022-08-30T11:56:04;25.90;67.90
65074;DHT22;52218;51.224;-2.328;2022-08-30T12:00:00;25.80;66.60
65074;DHT22;52218;51.224;-2.328;2022-08-30T12:03:56;25.70;66.50
65074;DHT22;52218;51.224;-2.328;2022-08-30T12:07:57;25.50;67.30
65074;DHT22;52218;51.224;-2.328;2022-08-30T12:15:55;24.70;68.70
65074;DHT22;52218;51.224;-2.328;2022-08-30T12:19:37;24.40;69.00
65074;DHT22;52218;51.224;-2.328;2022-08-30T12:27:34;24.20;70.40
65074;DHT22;52218;51.224;-2.328;2022-08-30T12:31:25;24.10;70.40
65074;DHT22;52218;51.224;-2.328;2022-08-30T12:35:18;24.00;70.80
65074;DHT22;52218;51.224;-2.328;2022-08-30T12:39:06;23.90;71.10
65074;DHT22;52218;51.224;-2.328;2022-08-30T12:43:00;23.90;70.50
65074;DHT22;52218;51.224;-2.328;2022-08-30T12:46:45;23.80;70.20
65074;DHT22;52218;51.224;-2.328;2022-08-30T12:50:42;23.80;71.10
65074;DHT22;52218;51.224;-2.328;2022-08-30T12:54:27;23.60;70.70
65074;DHT22;52218;51.224;-2.328;2022-08-30T12:58:13;23.50;71.70
65074;DHT22;52218;51.224;-2.328;2022-08-30T13:02:07;23.50;71.40
65074;DHT22;52218;51.224;-2.328;2022-08-30T13:06:02;23.50;71.50
65074;DHT22;52218;51.224;-2.328;2022-08-30T13:09:45;23.60;70.90
65074;DHT22;52218;51.224;-2.328;2022-08-30T13:24:54;24.10;70.30
65074;DHT22;52218;51.224;-2.328;2022-08-30T13:28:49;24.10;70.40
65074;DHT22;52218;51.224;-2.328;2022-08-30T13:32:31;24.40;70.00
65074;DHT22;52218;51.224;-2.328;2022-08-30T13:36:21;24.70;68.50
65074;DHT22;52218;51.224;-2.328;2022-08-30T13:40:05;24.90;68.40
65074;DHT22;52218;51.224;-2.328;2022-08-30T13:43:49;25.00;67.90
65074;DHT22;52218;51.224;-2.328;2022-08-30T13:47:51;24.90;68.10
65074;DHT22;52218;51.224;-2.328;2022-08-30T13:51:35;25.10;67.30
65074;DHT22;52218;51.224;-2.328;2022-08-30T13:55:17;25.20;66.50
65074;DHT22;52218;51.224;-2.328;2022-08-30T13:59:01;25.20;66.80
65074;DHT22;52218;51.224;-2.328;2022-08-30T14:02:48;25.20;66.70
65074;DHT22;52218;51.224;-2.328;2022-08-30T14:06:36;25.20;66.30
65074;DHT22;52218;51.224;-2.328;2022-08-30T14:10:38;25.20;66.60
65074;DHT22;52218;51.224;-2.328;2022-08-30T14:14:28;25.10;65.90
65074;DHT22;52218;51.224;-2.328;2022-08-30T14:18:23;25.10;66.40
65074;DHT22;52218;51.224;-2.328;2022-08-30T14:22:05;25.10;66.30
65074;DHT22;52218;51.224;-2.328;2022-08-30T14:25:48;25.00;66.20
65074;DHT22;52218;51.224;-2.328;2022-08-30T14:29:31;25.00;66.30
65074;DHT22;52218;51.224;-2.328;2022-08-30T14:33:13;25.10;66.70
65074;DHT22;52218;51.224;-2.328;2022-08-30T14:36:56;25.10;66.10
65074;DHT22;52218;51.224;-2.328;2022-08-30T14:40:39;25.20;65.70
65074;DHT22;52218;51.224;-2.328;2022-08-30T14:44:23;25.20;65.70
65074;DHT22;52218;51.224;-2.328;2022-08-30T14:48:05;25.30;66.20
65074;DHT22;52218;51.224;-2.328;2022-08-30T14:51:53;25.40;65.10
65074;DHT22;52218;51.224;-2.328;2022-08-30T14:55:35;25.50;64.90
65074;DHT22;52218;51.224;-2.328;2022-08-30T14:59:18;25.50;64.90
65074;DHT22;52218;51.224;-2.328;2022-08-30T15:03:00;25.40;64.90
65074;DHT22;52218;51.224;-2.328;2022-08-30T15:06:44;25.30;65.40
65074;DHT22;52218;51.224;-2.328;2022-08-30T15:10:27;25.30;65.20
65074;DHT22;52218;51.224;-2.328;2022-08-30T15:14:09;25.50;64.70
65074;DHT22;52218;51.224;-2.328;2022-08-30T15:17:56;25.80;64.20
65074;DHT22;52218;51.224;-2.328;2022-08-30T15:21:44;25.70;63.60
65074;DHT22;52218;51.224;-2.328;2022-08-30T15:25:26;25.60;64.40
65074;DHT22;52218;51.224;-2.328;2022-08-30T15:29:14;25.40;64.00
65074;DHT22;52218;51.224;-2.328;2022-08-30T15:32:56;25.40;64.70
65074;DHT22;52218;51.224;-2.328;2022-08-30T15:36:39;25.30;64.30
65074;DHT22;52218;51.224;-2.328;2022-08-30T15:40:22;25.50;64.00
65074;DHT22;52218;51.224;-2.328;2022-08-30T15:44:07;25.60;64.30
65074;DHT22;52218;51.224;-2.328;2022-08-30T15:47:52;25.60;63.40
65074;DHT22;52218;51.224;-2.328;2022-08-30T15:51:34;25.60;64.60
65074;DHT22;52218;51.224;-2.328;2022-08-30T15:55:22;25.60;64.10
65074;DHT22;52218;51.224;-2.328;2022-08-30T15:59:07;25.50;63.80
65074;DHT22;52218;51.224;-2.328;2022-08-30T16:02:49;25.50;63.50
65074;DHT22;52218;51.224;-2.328;2022-08-30T16:06:34;25.50;63.30
65074;DHT22;52218;51.224;-2.328;2022-08-30T16:10:18;25.50;62.70
65074;DHT22;52218;51.224;-2.328;2022-08-30T16:14:00;25.50;64.10
65074;DHT22;52218;51.224;-2.328;2022-08-30T16:17:42;25.40;63.20
65074;DHT22;52218;51.224;-2.328;2022-08-30T16:21:34;25.40;63.20
65074;DHT22;52218;51.224;-2.328;2022-08-30T16:25:20;25.30;63.40
65074;DHT22;52218;51.224;-2.328;2022-08-30T16:29:05;25.30;63.50
65074;DHT22;52218;51.224;-2.328;2022-08-30T16:32:49;25.30;64.10
65074;DHT22;52218;51.224;-2.328;2022-08-30T16:36:32;25.40;64.70
65074;DHT22;52218;51.224;-2.328;2022-08-30T16:40:16;25.50;64.20
65074;DHT22;52218;51.224;-2.328;2022-08-30T16:43:58;25.60;63.30
65074;DHT22;52218;51.224;-2.328;2022-08-30T16:47:41;25.60;62.30
65074;DHT22;52218;51.224;-2.328;2022-08-30T16:51:26;25.60;62.70
65074;DHT22;52218;51.224;-2.328;2022-08-30T16:55:08;25.50;62.20
65074;DHT22;52218;51.224;-2.328;2022-08-30T16:58:51;25.40;62.70
65074;DHT22;52218;51.224;-2.328;2022-08-30T17:02:42;25.40;62.90
65074;DHT22;52218;51.224;-2.328;2022-08-30T17:06:35;25.20;62.80
65074;DHT22;52218;51.224;-2.328;2022-08-30T17:10:18;25.20;63.80
65074;DHT22;52218;51.224;-2.328;2022-08-30T17:14:04;25.10;62.70
65074;DHT22;52218;51.224;-2.328;2022-08-30T17:17:48;25.10;62.60
65074;DHT22;52218;51.224;-2.328;2022-08-30T17:21:30;25.10;63.20
65074;DHT22;52218;51.224;-2.328;2022-08-30T17:25:13;25.10;63.10
65074;DHT22;52218;51.224;-2.328;2022-08-30T17:28:55;25.10;62.90
65074;DHT22;52218;51.224;-2.328;2022-08-30T17:32:38;25.20;63.00
65074;DHT22;52218;51.224;-2.328;2022-08-30T17:36:20;25.20;63.10
65074;DHT22;52218;51.224;-2.328;2022-08-30T17:40:03;25.10;63.30
65074;DHT22;52218;51.224;-2.328;2022-08-30T17:43:55;25.00;63.30
65074;DHT22;52218;51.224;-2.328;2022-08-30T17:47:37;24.90;63.40
65074;DHT22;52218;51.224;-2.328;2022-08-30T17:51:19;24.70;63.80
65074;DHT22;52218;51.224;-2.328;2022-08-30T17:55:01;24.60;64.10
65074;DHT22;52218;51.224;-2.328;2022-08-30T17:58:44;24.50;64.00
65074;DHT22;52218;51.224;-2.328;2022-08-30T18:02:27;24.30;64.10
65074;DHT22;52218;51.224;-2.328;2022-08-30T18:06:11;24.20;64.40
65074;DHT22;52218;51.224;-2.328;2022-08-30T18:09:53;24.00;65.60
65074;DHT22;52218;51.224;-2.328;2022-08-30T18:13:36;23.80;65.80
65074;DHT22;52218;51.224;-2.328;2022-08-30T18:17:19;23.60;66.00
65074;DHT22;52218;51.224;-2.328;2022-08-30T18:21:03;23.50;66.80
65074;DHT22;52218;51.224;-2.328;2022-08-30T18:24:45;23.30;67.30
65074;DHT22;52218;51.224;-2.328;2022-08-30T18:28:27;23.20;67.70
65074;DHT22;52218;51.224;-2.328;2022-08-30T18:32:09;23.10;69.10
65074;DHT22;52218;51.224;-2.328;2022-08-30T18:35:52;23.00;69.20
65074;DHT22;52218;51.224;-2.328;2022-08-30T18:39:34;22.80;69.70
65074;DHT22;52218;51.224;-2.328;2022-08-30T18:43:16;22.70;70.40
65074;DHT22;52218;51.224;-2.328;2022-08-30T18:47:05;22.50;71.00
65074;DHT22;52218;51.224;-2.328;2022-08-30T18:50:48;22.40;72.20
65074;DHT22;52218;51.224;-2.328;2022-08-30T18:54:29;22.20;72.00
65074;DHT22;52218;51.224;-2.328;2022-08-30T18:58:12;22.00;72.70
65074;DHT22;52218;51.224;-2.328;2022-08-30T19:01:57;21.80;73.20
65074;DHT22;52218;51.224;-2.328;2022-08-30T19:05:39;21.70;74.20
65074;DHT22;52218;51.224;-2.328;2022-08-30T19:09:22;21.50;74.60
65074;DHT22;52218;51.224;-2.328;2022-08-30T19:13:07;21.30;75.00
65074;DHT22;52218;51.224;-2.328;2022-08-30T19:16:49;21.20;75.50
65074;DHT22;52218;51.224;-2.328;2022-08-30T19:20:31;21.00;75.70
65074;DHT22;52218;51.224;-2.328;2022-08-30T19:24:13;20.90;76.10
65074;DHT22;52218;51.224;-2.328;2022-08-30T19:27:58;20.80;76.60
65074;DHT22;52218;51.224;-2.328;2022-08-30T19:31:40;20.60;77.30
65074;DHT22;52218;51.224;-2.328;2022-08-30T19:35:22;20.50;77.60
65074;DHT22;52218;51.224;-2.328;2022-08-30T19:39:05;20.40;78.40
65074;DHT22;52218;51.224;-2.328;2022-08-30T19:42:48;20.30;78.90
65074;DHT22;52218;51.224;-2.328;2022-08-30T19:46:32;20.20;79.10
65074;DHT22;52218;51.224;-2.328;2022-08-30T19:50:16;20.10;80.00
65074;DHT22;52218;51.224;-2.328;2022-08-30T19:53:59;20.00;80.20
65074;DHT22;52218;51.224;-2.328;2022-08-30T19:57:41;19.90;80.80
65074;DHT22;52218;51.224;-2.328;2022-08-30T20:01:25;19.80;81.20
65074;DHT22;52218;51.224;-2.328;2022-08-30T20:05:14;19.70;81.80
65074;DHT22;52218;51.224;-2.328;2022-08-30T20:08:56;19.70;82.30
65074;DHT22;52218;51.224;-2.328;2022-08-30T20:12:40;19.60;82.40
65074;DHT22;52218;51.224;-2.328;2022-08-30T20:16:26;19.50;83.00
65074;DHT22;52218;51.224;-2.328;2022-08-30T20:20:19;19.40;83.50
65074;DHT22;52218;51.224;-2.328;2022-08-30T20:24:04;19.30;83.90
65074;DHT22;52218;51.224;-2.328;2022-08-30T20:27:50;19.20;80.30
65074;DHT22;52218;51.224;-2.328;2022-08-30T20:31:33;19.20;84.70
65074;DHT22;52218;51.224;-2.328;2022-08-30T20:35:16;19.10;85.50
65074;DHT22;52218;51.224;-2.328;2022-08-30T20:38:58;19.00;85.70
65074;DHT22;52218;51.224;-2.328;2022-08-30T20:42:43;19.00;86.10
65074;DHT22;52218;51.224;-2.328;2022-08-30T20:46:26;18.90;86.70
65074;DHT22;52218;51.224;-2.328;2022-08-30T20:50:15;18.80;87.20
65074;DHT22;52218;51.224;-2.328;2022-08-30T20:53:57;18.80;87.90
65074;DHT22;52218;51.224;-2.328;2022-08-30T20:57:39;18.70;89.30
65074;DHT22;52218;51.224;-2.328;2022-08-30T21:01:21;18.60;88.90
65074;DHT22;52218;51.224;-2.328;2022-08-30T21:05:05;18.50;89.60
65074;DHT22;52218;51.224;-2.328;2022-08-30T21:08:47;18.50;90.10
65074;DHT22;52218;51.224;-2.328;2022-08-30T21:12:29;18.40;90.40
65074;DHT22;52218;51.224;-2.328;2022-08-30T21:16:11;18.40;90.60
65074;DHT22;52218;51.224;-2.328;2022-08-30T21:19:53;18.30;90.90
65074;DHT22;52218;51.224;-2.328;2022-08-30T21:23:36;18.30;91.30
65074;DHT22;52218;51.224;-2.328;2022-08-30T21:27:18;18.30;91.50
65074;DHT22;52218;51.224;-2.328;2022-08-30T21:31:09;18.20;91.80
65074;DHT22;52218;51.224;-2.328;2022-08-30T21:34:51;18.20;91.80
65074;DHT22;52218;51.224;-2.328;2022-08-30T21:38:52;18.10;92.30
65074;DHT22;52218;51.224;-2.328;2022-08-30T21:42:38;18.10;92.60
65074;DHT22;52218;51.224;-2.328;2022-08-30T21:46:20;18.10;92.80
65074;DHT22;52218;51.224;-2.328;2022-08-30T21:50:03;18.00;93.10
65074;DHT22;52218;51.224;-2.328;2022-08-30T21:53:46;18.00;93.30
65074;DHT22;52218;51.224;-2.328;2022-08-30T21:57:28;18.00;93.40
65074;DHT22;52218;51.224;-2.328;2022-08-30T22:01:16;18.00;93.70
65074;DHT22;52218;51.224;-2.328;2022-08-30T22:05:00;17.90;93.80
65074;DHT22;52218;51.224;-2.328;2022-08-30T22:08:44;17.90;94.10
65074;DHT22;52218;51.224;-2.328;2022-08-30T22:12:29;17.80;94.30
65074;DHT22;52218;51.224;-2.328;2022-08-30T22:16:11;17.80;94.50
65074;DHT22;52218;51.224;-2.328;2022-08-30T22:19:54;17.70;94.60
65074;DHT22;52218;51.224;-2.328;2022-08-30T22:23:36;17.70;94.70
65074;DHT22;52218;51.224;-2.328;2022-08-30T22:27:18;17.60;94.90
65074;DHT22;52218;51.224;-2.328;2022-08-30T22:31:05;17.50;95.00
65074;DHT22;52218;51.224;-2.328;2022-08-30T22:34:48;17.50;95.30
65074;DHT22;52218;51.224;-2.328;2022-08-30T22:38:30;17.40;95.40
65074;DHT22;52218;51.224;-2.328;2022-08-30T22:42:12;17.30;95.70
65074;DHT22;52218;51.224;-2.328;2022-08-30T22:45:55;17.30;95.80
65074;DHT22;52218;51.224;-2.328;2022-08-30T22:49:38;17.20;96.00
65074;DHT22;52218;51.224;-2.328;2022-08-30T22:53:20;17.10;96.10
65074;DHT22;52218;51.224;-2.328;2022-08-30T22:57:02;17.10;96.30
65074;DHT22;52218;51.224;-2.328;2022-08-30T23:00:45;17.00;96.60
65074;DHT22;52218;51.224;-2.328;2022-08-30T23:04:36;17.00;96.80
65074;DHT22;52218;51.224;-2.328;2022-08-30T23:08:18;16.90;96.90
65074;DHT22;52218;51.224;-2.328;2022-08-30T23:12:01;16.80;97.00
65074;DHT22;52218;51.224;-2.328;2022-08-30T23:15:43;16.80;97.30
65074;DHT22;52218;51.224;-2.328;2022-08-30T23:19:24;16.70;97.40
65074;DHT22;52218;51.224;-2.328;2022-08-30T23:23:07;16.60;97.50
65074;DHT22;52218;51.224;-2.328;2022-08-30T23:26:49;16.60;97.60
65074;DHT22;52218;51.224;-2.328;2022-08-30T23:30:49;16.60;97.80
65074;DHT22;52218;51.224;-2.328;2022-08-30T23:34:50;16.50;97.80
65074;DHT22;52218;51.224;-2.328;2022-08-30T23:38:50;16.40;98.00
65074;DHT22;52218;51.224;-2.328;2022-08-30T23:42:51;16.40;98.20
65074;DHT22;52218;51.224;-2.328;2022-08-30T23:46:51;16.40;98.40
65074;DHT22;52218;51.224;-2.328;2022-08-30T23:50:52;16.30;98.50
65074;DHT22;52218;51.224;-2.328;2022-08-30T23:55:03;16.30;98.70
65074;DHT22;52218;51.224;-2.328;2022-08-30T23:59:04;16.20;98.80
